Renchville, Illinois
Current Conditions -  °F | °C
As of 12:35 AM on Thursday 27 Nov 2014 (Local Time) from KC75 Reporting Station
Overcast Overcast  
Wind Chill: 22°   Ceiling: 8000
Heat Index: 22°   Visibility: 10mi
Dew Point: 17°   Wind: 3mph
Humidity: 82%   Direction: 340°NNW
Pressure: 30.25"   Gusts: NA
Location:  40.915°N, 89.5303°W
Report Text: KC75 270635Z AUTO 34003KT 10SM BKN080 OVC100 M06/M08 A3025 RMK AO2 T10581085
Loading
Personal Weather Stations






























Interactive Weather Map New forecast layout! Learn more

10-Day Weather Forecast

Advertisements
Track Severe Weather on mobile